Time;durP1;ratioP1;P1;durP2;ratioP2;P2;SDS_P1;SDS_P2;PMS_P1;PMS_P2;Temp;Humidity;BMP_temperature;BMP_pressure;BME280_temperature;BME280_humidity;BME280_pressure;Samples;Min_cycle;Max_cycle;Signal;HPM_P1;HPM_P2
2023/03/22 00:01:21;;;;;;;15.50;4.15;;;15.20;83.90;;;;;;5064019;28;20053;-56
2023/03/22 00:03:47;;;;;;;17.20;4.50;;;15.20;83.80;;;;;;5064162;28;20029;-56
2023/03/22 00:06:13;;;;;;;17.75;4.32;;;15.20;83.80;;;;;;5047758;28;20040;-56
2023/03/22 00:08:38;;;;;;;12.15;4.00;;;15.10;83.90;;;;;;5064422;28;20040;-57
2023/03/22 00:11:04;;;;;;;12.23;4.30;;;15.10;83.90;;;;;;5047687;28;20029;-56
2023/03/22 00:13:30;;;;;;;10.43;4.15;;;15.10;83.80;;;;;;5064253;28;20037;-57
2023/03/22 00:15:56;;;;;;;12.32;3.90;;;15.10;84.50;;;;;;5064254;28;20043;-56
2023/03/22 00:18:22;;;;;;;17.48;4.15;;;15.10;83.90;;;;;;5063875;28;20104;-57
2023/03/22 00:20:52;;;;;;;10.23;3.78;;;15.10;84.00;;;;;;5064250;28;20025;-56
2023/03/22 00:23:17;;;;;;;11.50;3.97;;;15.10;84.00;;;;;;5064275;28;20033;-56
2023/03/22 00:25:44;;;;;;;11.18;3.85;;;15.10;84.00;;;;;;5065647;28;20048;-56
2023/03/22 00:28:09;;;;;;;8.98;3.58;;;15.00;83.90;;;;;;5064939;28;20025;-56
2023/03/22 00:30:35;;;;;;;9.30;3.75;;;15.00;84.00;;;;;;5047214;28;20051;-56
2023/03/22 00:33:00;;;;;;;9.05;3.47;;;15.00;84.20;;;;;;5064154;28;20496;-56
2023/03/22 00:35:26;;;;;;;12.43;3.58;;;15.00;84.30;;;;;;5065229;28;20028;-56
2023/03/22 00:37:51;;;;;;;9.30;3.53;;;15.00;84.30;;;;;;5063807;28;20030;-56
2023/03/22 00:40:17;;;;;;;7.40;3.50;;;15.00;84.30;;;;;;5047103;28;20089;-57
2023/03/22 00:42:43;;;;;;;8.35;3.30;;;14.90;84.30;;;;;;5063712;28;20052;-56
2023/03/22 00:45:09;;;;;;;5.55;3.20;;;14.90;84.40;;;;;;5065017;28;20028;-57
2023/03/22 00:47:35;;;;;;;8.43;3.40;;;14.80;84.40;;;;;;5047337;28;20594;-56
2023/03/22 00:50:01;;;;;;;9.25;3.50;;;14.90;84.50;;;;;;5063491;28;20112;-56
2023/03/22 00:52:27;;;;;;;7.65;3.03;;;14.90;84.50;;;;;;5063371;28;20108;-56
2023/03/22 00:54:53;;;;;;;3.85;3.42;;;14.90;84.60;;;;;;5063347;28;20055;-56
2023/03/22 00:57:19;;;;;;;7.97;3.88;;;14.80;84.60;;;;;;5064755;28;20033;-56
2023/03/22 00:59:44;;;;;;;9.27;3.80;;;14.80;84.70;;;;;;5063583;28;20021;-56
2023/03/22 01:02:12;;;;;;;12.63;3.55;;;14.80;84.60;;;;;;5063427;28;20021;-56
2023/03/22 01:04:45;;;;;;;7.13;3.42;;;14.80;84.80;;;;;;5046901;28;20033;-56
2023/03/22 01:07:16;;;;;;;7.18;3.50;;;14.70;85.50;;;;;;5048956;28;20060;-56
2023/03/22 01:09:43;;;;;;;5.30;3.40;;;14.70;85.00;;;;;;5063884;28;20043;-57
2023/03/22 01:12:09;;;;;;;8.20;3.33;;;14.70;85.10;;;;;;5064136;28;20033;-57
2023/03/22 01:14:35;;;;;;;9.07;2.92;;;14.70;85.20;;;;;;5063870;28;20064;-56
2023/03/22 01:17:00;;;;;;;7.82;3.30;;;14.70;85.30;;;;;;5064917;28;20029;-56
2023/03/22 01:19:26;;;;;;;6.47;3.20;;;14.60;85.30;;;;;;5063287;28;20029;-57
2023/03/22 01:21:52;;;;;;;6.25;3.15;;;14.60;85.30;;;;;;5063400;28;20022;-56
2023/03/22 01:24:18;;;;;;;7.75;3.00;;;14.60;85.20;;;;;;5046729;28;20029;-56
2023/03/22 01:26:43;;;;;;;7.60;3.10;;;14.60;85.30;;;;;;5063452;28;20033;-56
2023/03/22 01:29:09;;;;;;;6.07;3.33;;;14.60;85.30;;;;;;5046703;28;20029;-56
2023/03/22 01:31:34;;;;;;;5.55;2.85;;;14.60;85.40;;;;;;5063103;28;20025;-56
2023/03/22 01:34:00;;;;;;;7.28;3.10;;;14.60;85.40;;;;;;5063243;28;20422;-57
2023/03/22 01:36:25;;;;;;;4.93;3.03;;;14.50;85.30;;;;;;5062865;28;20118;-56
2023/03/22 01:38:51;;;;;;;7.40;2.88;;;14.50;85.30;;;;;;5064470;28;20025;-56
2023/03/22 01:41:16;;;;;;;5.22;3.00;;;14.50;85.50;;;;;;5063189;28;20029;-56
2023/03/22 01:43:42;;;;;;;5.90;3.25;;;14.50;85.60;;;;;;5062864;28;20061;-56
2023/03/22 01:46:08;;;;;;;6.35;2.22;;;14.50;85.60;;;;;;5062981;28;20033;-56
2023/03/22 01:48:44;;;;;;;4.07;2.63;;;14.40;85.70;;;;;;5062959;28;20032;-56
2023/03/22 01:51:18;;;;;;;6.35;3.17;;;14.40;86.50;;;;;;5047533;28;20037;-57
2023/03/22 01:53:46;;;;;;;3.92;2.47;;;14.40;86.00;;;;;;5047168;28;20036;-57
2023/03/22 01:56:12;;;;;;;5.28;2.67;;;14.30;85.90;;;;;;5046381;28;20148;-56
2023/03/22 01:58:38;;;;;;;5.93;2.58;;;14.30;86.00;;;;;;5062797;28;20029;-56
2023/03/22 02:01:05;;;;;;;7.20;2.95;;;14.30;86.10;;;;;;5046409;28;20043;-56
2023/03/22 02:03:52;;;;;;;3.67;2.42;;;14.30;86.10;;;;;;5064046;28;20081;-56
2023/03/22 02:06:18;;;;;;;4.97;2.30;;;14.20;86.10;;;;;;5048318;28;20108;-56
2023/03/22 02:08:44;;;;;;;4.38;2.67;;;14.20;86.20;;;;;;5046267;28;20037;-56
2023/03/22 02:11:13;;;;;;;4.25;2.25;;;14.20;86.40;;;;;;5046065;28;20029;-56
2023/03/22 02:14:08;;;;;;;4.30;2.50;;;14.20;86.30;;;;;;5046572;28;20523;-56
2023/03/22 02:16:41;;;;;;;5.40;2.83;;;14.20;86.30;;;;;;5063352;28;20091;-56
2023/03/22 02:19:32;;;;;;;6.72;3.38;;;14.20;86.30;;;;;;5046779;28;20085;-57
2023/03/22 02:22:13;;;;;;;9.38;3.50;;;14.10;86.10;;;;;;5062520;28;20036;-56
2023/03/22 02:25:06;;;;;;;6.05;3.42;;;14.10;86.20;;;;;;5067490;28;20403;-57
2023/03/22 02:27:53;;;;;;;7.85;3.55;;;14.10;86.20;;;;;;5068045;28;20116;-56
2023/03/22 02:30:41;;;;;;;5.30;2.88;;;14.00;86.20;;;;;;5067612;28;20390;-56
2023/03/22 02:33:19;;;;;;;6.00;3.20;;;14.00;86.20;;;;;;5066445;28;20025;-56
2023/03/22 02:35:45;;;;;;;9.40;3.38;;;14.00;86.20;;;;;;5067440;28;20060;-56
2023/03/22 02:38:10;;;;;;;5.38;3.42;;;14.00;86.20;;;;;;5067428;28;20029;-56
2023/03/22 02:41:11;;;;;;;4.18;2.70;;;13.90;86.30;;;;;;5067412;28;20056;-56
2023/03/22 02:43:45;;;;;;;5.75;3.20;;;13.90;86.20;;;;;;5044412;28;20110;-56
2023/03/22 02:46:33;;;;;;;5.43;3.13;;;13.80;86.40;;;;;;5066256;28;20033;-56
2023/03/22 02:49:22;;;;;;;6.63;3.35;;;13.80;86.40;;;;;;5066692;28;20029;-56
2023/03/22 02:51:58;;;;;;;5.80;3.20;;;13.80;86.60;;;;;;5051710;28;20040;-56
2023/03/22 02:54:27;;;;;;;;;;;13.80;86.70;;;;;;5066359;28;20087;-56
2023/03/22 02:56:57;;;;;;;6.47;3.80;;;13.70;86.80;;;;;;5099501;28;19920;-56
2023/03/22 02:59:23;;;;;;;3.90;3.30;;;13.70;87.50;;;;;;5049603;28;20480;-56
2023/03/22 03:01:54;;;;;;;5.70;3.90;;;13.70;87.50;;;;;;5048747;28;20080;-56
2023/03/22 03:04:25;;;;;;;4.60;3.60;;;13.70;86.60;;;;;;5048784;28;20085;-56
2023/03/22 03:06:52;;;;;;;4.18;2.90;;;13.70;86.50;;;;;;5049664;28;20104;-56
2023/03/22 03:09:18;;;;;;;5.97;3.70;;;13.70;86.60;;;;;;5048707;28;20036;-56
2023/03/22 03:11:48;;;;;;;7.03;3.58;;;13.70;86.60;;;;;;5048954;28;20025;-56
2023/03/22 03:14:20;;;;;;;5.65;3.45;;;13.70;86.50;;;;;;5049091;28;20036;-56
2023/03/22 03:16:46;;;;;;;4.15;3.42;;;13.60;86.50;;;;;;5066524;28;20068;-56
2023/03/22 03:19:19;;;;;;;6.68;3.58;;;13.60;86.50;;;;;;5048895;28;20021;-56
2023/03/22 03:21:59;;;;;;;9.77;3.60;;;13.60;86.70;;;;;;5048839;28;20039;-56
2023/03/22 03:24:38;;;;;;;4.80;2.83;;;13.60;86.90;;;;;;5048954;28;20100;-56
2023/03/22 03:27:14;;;;;;;5.72;3.08;;;13.60;87.00;;;;;;5065010;28;20470;-56
2023/03/22 03:29:39;;;;;;;;;;;13.50;87.00;;;;;;5065124;28;20032;-56
2023/03/22 03:32:15;;;;;;;3.92;3.00;;;13.50;87.00;;;;;;5066257;28;19959;-56
2023/03/22 03:35:00;;;;;;;5.20;3.15;;;13.50;87.10;;;;;;5064340;28;20115;-57
2023/03/22 03:37:32;;;;;;;4.53;2.90;;;13.50;86.90;;;;;;5048483;28;20037;-56
2023/03/22 03:40:08;;;;;;;6.63;3.05;;;13.50;86.70;;;;;;5049202;28;20032;-56
2023/03/22 03:42:34;;;;;;;;;;;13.50;86.80;;;;;;5065225;28;20025;-56
2023/03/22 03:44:59;;;;;;;5.25;3.13;;;13.50;86.70;;;;;;5098136;28;19951;-56
2023/03/22 03:47:25;;;;;;;4.90;2.83;;;13.40;86.80;;;;;;5064729;28;20036;-56
2023/03/22 03:49:50;;;;;;;5.18;2.60;;;13.40;87.00;;;;;;5047749;28;20048;-56
2023/03/22 03:52:16;;;;;;;5.85;2.88;;;13.40;87.80;;;;;;5047835;28;20154;-56
2023/03/22 03:54:41;;;;;;;6.05;3.20;;;13.40;87.30;;;;;;5047978;28;20025;-56
2023/03/22 03:57:07;;;;;;;5.78;3.03;;;13.30;87.40;;;;;;5047642;28;20029;-56
2023/03/22 03:59:33;;;;;;;6.32;3.33;;;13.30;87.50;;;;;;5064415;28;20029;-56
2023/03/22 04:01:59;;;;;;;4.25;3.10;;;13.30;87.60;;;;;;5064201;28;20047;-57
2023/03/22 04:04:26;;;;;;;5.70;3.30;;;13.30;87.60;;;;;;5065665;28;20051;-56
2023/03/22 04:06:56;;;;;;;5.00;3.35;;;13.30;87.80;;;;;;5031066;28;20061;-56
2023/03/22 04:09:23;;;;;;;6.43;3.15;;;13.30;87.70;;;;;;5064204;28;20025;-56
2023/03/22 04:11:49;;;;;;;6.10;3.22;;;13.20;87.60;;;;;;5065436;28;20063;-56
2023/03/22 04:14:14;;;;;;;4.82;2.90;;;13.20;88.30;;;;;;5065349;28;20388;-56
2023/03/22 04:16:40;;;;;;;6.35;3.47;;;13.30;87.70;;;;;;5064013;28;20039;-56
2023/03/22 04:19:05;;;;;;;9.55;3.35;;;13.20;87.60;;;;;;5065492;28;20228;-56
2023/03/22 04:21:31;;;;;;;6.13;3.75;;;13.20;87.60;;;;;;5063887;28;20021;-56
2023/03/22 04:23:57;;;;;;;6.22;3.85;;;13.20;87.60;;;;;;5063987;28;20044;-56
2023/03/22 04:26:22;;;;;;;7.95;4.20;;;13.10;87.60;;;;;;5065333;28;20021;-56
2023/03/22 04:28:48;;;;;;;8.95;4.50;;;13.10;87.60;;;;;;5065243;28;20041;-56
2023/03/22 04:31:13;;;;;;;14.68;5.13;;;13.10;87.70;;;;;;5065293;28;20495;-56
2023/03/22 04:33:39;;;;;;;16.80;4.80;;;13.00;87.70;;;;;;5047158;28;20037;-56
2023/03/22 04:36:14;;;;;;;17.35;5.28;;;13.00;87.80;;;;;;5063713;28;20035;-55
2023/03/22 04:38:40;;;;;;;28.88;6.28;;;13.00;87.80;;;;;;5063779;28;20029;-56
2023/03/22 04:41:06;;;;;;;30.95;5.97;;;12.90;87.80;;;;;;5065147;28;20039;-56
2023/03/22 04:43:33;;;;;;;26.17;6.43;;;12.90;87.90;;;;;;5063717;28;20036;-56
2023/03/22 04:46:02;;;;;;;25.30;6.28;;;12.90;87.90;;;;;;5062812;28;20029;-56
2023/03/22 04:48:28;;;;;;;21.17;5.53;;;12.90;88.00;;;;;;5064756;28;20037;-56
2023/03/22 04:50:54;;;;;;;26.45;6.45;;;12.80;87.90;;;;;;5064809;28;20029;-56
2023/03/22 04:53:25;;;;;;;23.73;5.22;;;12.80;87.90;;;;;;5046637;28;20029;-56
2023/03/22 04:55:57;;;;;;;13.35;4.70;;;12.80;88.10;;;;;;5064912;28;20028;-57
2023/03/22 04:58:24;;;;;;;12.55;5.30;;;12.70;88.10;;;;;;5063654;28;20083;-57
2023/03/22 05:00:51;;;;;;;23.50;4.90;;;12.70;88.10;;;;;;5064926;28;20031;-56
2023/03/22 05:03:19;;;;;;;18.75;4.53;;;12.70;88.20;;;;;;5047181;28;20044;-56
2023/03/22 05:05:55;;;;;;;20.25;4.57;;;12.70;88.20;;;;;;5046985;28;20045;-56
2023/03/22 05:08:21;;;;;;;15.65;4.80;;;12.60;88.30;;;;;;5063326;28;20025;-56
2023/03/22 05:10:46;;;;;;;7.20;3.85;;;12.60;88.40;;;;;;5046913;28;20062;-56
2023/03/22 05:13:12;;;;;;;16.73;5.13;;;12.70;88.40;;;;;;5047020;28;20136;-57
2023/03/22 05:15:38;;;;;;;27.35;4.95;;;12.70;88.30;;;;;;5063115;28;20103;-56
2023/03/22 05:18:04;;;;;;;17.83;4.55;;;12.70;88.20;;;;;;5063318;28;20036;-57
2023/03/22 05:20:30;;;;;;;13.48;4.07;;;13.00;88.30;;;;;;5046635;28;20044;-56
2023/03/22 05:22:55;;;;;;;15.73;4.28;;;12.60;88.20;;;;;;5065046;28;20048;-56
2023/03/22 05:25:21;;;;;;;18.17;3.67;;;12.60;88.40;;;;;;5063170;28;20112;-56
2023/03/22 05:27:49;;;;;;;17.02;3.85;;;12.60;88.30;;;;;;5063043;28;20102;-56
2023/03/22 05:30:14;;;;;;;12.80;3.33;;;12.50;88.30;;;;;;5062939;28;20476;-56
2023/03/22 05:32:42;;;;;;;9.68;3.55;;;12.50;88.40;;;;;;5062904;28;20025;-56
2023/03/22 05:35:08;;;;;;;10.18;3.40;;;12.50;88.50;;;;;;5063043;28;20025;-57
2023/03/22 05:37:34;;;;;;;10.88;3.47;;;12.50;88.60;;;;;;5063048;28;20045;-56
2023/03/22 05:40:00;;;;;;;13.35;3.72;;;12.40;88.80;;;;;;5062752;28;20150;-56
2023/03/22 05:42:25;;;;;;;15.50;3.83;;;12.40;88.90;;;;;;5062969;28;20028;-56
2023/03/22 05:44:51;;;;;;;14.57;3.90;;;12.40;89.20;;;;;;5029729;28;20055;-56
2023/03/22 05:47:16;;;;;;;14.82;3.60;;;12.40;89.30;;;;;;5062976;28;20116;-56
2023/03/22 05:49:42;;;;;;;10.20;3.17;;;12.30;89.40;;;;;;5064335;28;20366;-56
2023/03/22 05:52:07;;;;;;;7.82;3.00;;;12.30;89.50;;;;;;5064385;28;20109;-56
2023/03/22 05:54:33;;;;;;;13.27;3.15;;;12.40;89.50;;;;;;5063069;28;20033;-56
2023/03/22 05:56:59;;;;;;;9.73;2.95;;;12.40;89.50;;;;;;5065433;28;20044;-56
2023/03/22 05:59:25;;;;;;;5.38;2.90;;;12.30;89.50;;;;;;5068126;28;20032;-56
2023/03/22 06:01:51;;;;;;;9.65;2.83;;;12.40;89.40;;;;;;5050138;28;20346;-56
2023/03/22 06:04:17;;;;;;;6.43;2.97;;;12.40;89.30;;;;;;5049746;28;20040;-56
2023/03/22 06:06:43;;;;;;;6.15;2.53;;;12.30;89.20;;;;;;5068044;28;20081;-57
2023/03/22 06:09:09;;;;;;;7.03;2.78;;;12.30;89.90;;;;;;5049774;28;20032;-56
2023/03/22 06:11:35;;;;;;;6.85;2.78;;;12.30;89.30;;;;;;5066425;28;20032;-56
2023/03/22 06:14:00;;;;;;;7.93;3.08;;;12.30;89.40;;;;;;5066446;28;20029;-56
2023/03/22 06:16:26;;;;;;;8.07;2.78;;;12.30;89.50;;;;;;5067681;28;20211;-56
2023/03/22 06:18:52;;;;;;;6.22;2.42;;;12.20;89.40;;;;;;5049764;28;20094;-56
2023/03/22 06:21:17;;;;;;;6.13;2.55;;;12.30;90.00;;;;;;5066260;28;20092;-55
2023/03/22 06:23:43;;;;;;;8.07;3.15;;;12.20;89.40;;;;;;5067752;28;20032;-56
2023/03/22 06:26:10;;;;;;;5.32;2.60;;;12.20;90.00;;;;;;5067483;28;20037;-56
2023/03/22 06:28:36;;;;;;;5.15;2.60;;;12.20;89.50;;;;;;5033264;28;20036;-55
2023/03/22 06:31:08;;;;;;;9.60;2.85;;;12.20;90.00;;;;;;5067594;28;20438;-55
2023/03/22 06:33:34;;;;;;;4.95;2.80;;;12.20;90.00;;;;;;5049486;28;20048;-56
2023/03/22 06:36:00;;;;;;;6.97;2.58;;;12.10;89.50;;;;;;5049327;28;20033;-56
2023/03/22 06:38:27;;;;;;;7.15;2.58;;;12.20;89.40;;;;;;5066006;28;20036;-55
2023/03/22 06:40:52;;;;;;;4.93;2.78;;;12.10;89.50;;;;;;5065995;28;20059;-55
2023/03/22 06:43:18;;;;;;;5.18;2.63;;;12.10;89.40;;;;;;5065864;28;20025;-55
2023/03/22 06:45:45;;;;;;;4.03;2.72;;;12.10;90.00;;;;;;5067151;28;20047;-55
2023/03/22 06:48:11;;;;;;;7.47;2.97;;;12.10;89.60;;;;;;5065799;28;20047;-56
2023/03/22 06:50:37;;;;;;;10.68;3.10;;;12.10;89.60;;;;;;5065480;28;20033;-56
2023/03/22 06:53:04;;;;;;;7.07;2.50;;;12.10;89.60;;;;;;5065657;28;20025;-56
2023/03/22 06:55:33;;;;;;;7.38;2.50;;;12.00;89.50;;;;;;5065628;28;20491;-56
2023/03/22 06:58:02;;;;;;;3.90;2.60;;;12.10;89.70;;;;;;5065562;28;20133;-56
2023/03/22 07:00:28;;;;;;;12.02;2.58;;;12.00;89.70;;;;;;5065466;28;20052;-55
2023/03/22 07:02:53;;;;;;;7.20;2.35;;;12.00;89.80;;;;;;5066866;28;20045;-56
2023/03/22 07:05:19;;;;;;;3.70;2.70;;;12.00;89.80;;;;;;5066893;28;20028;-56
2023/03/22 07:07:45;;;;;;;6.90;2.67;;;12.00;89.80;;;;;;5065098;28;20090;-56
2023/03/22 07:10:10;;;;;;;8.23;2.60;;;12.10;89.80;;;;;;5048027;28;20029;-56
2023/03/22 07:12:36;;;;;;;4.93;2.97;;;12.10;89.70;;;;;;5066760;28;20041;-56
2023/03/22 07:15:02;;;;;;;5.32;2.60;;;12.10;89.60;;;;;;5048366;28;20024;-56
2023/03/22 07:17:28;;;;;;;11.88;2.75;;;12.10;89.50;;;;;;5066428;28;20053;-56
2023/03/22 07:19:53;;;;;;;7.93;3.03;;;12.10;89.60;;;;;;5066467;28;20029;-56
2023/03/22 07:22:23;;;;;;;6.68;2.67;;;12.10;89.60;;;;;;5066334;28;20025;-56
2023/03/22 07:24:49;;;;;;;5.70;2.55;;;12.00;89.70;;;;;;5064811;28;20089;-56
2023/03/22 07:27:15;;;;;;;9.77;2.75;;;12.10;89.70;;;;;;5048425;28;20062;-56
2023/03/22 07:29:41;;;;;;;13.07;2.83;;;12.00;89.70;;;;;;5066262;28;20025;-56
2023/03/22 07:32:06;;;;;;;6.82;3.15;;;12.10;89.70;;;;;;5065787;28;20461;-56
2023/03/22 07:34:32;;;;;;;5.78;3.00;;;12.00;89.70;;;;;;5066654;28;20043;-55
2023/03/22 07:36:57;;;;;;;5.85;2.80;;;12.10;89.70;;;;;;5064842;28;20091;-56
2023/03/22 07:39:27;;;;;;;6.80;3.10;;;12.10;89.70;;;;;;5047799;28;20025;-56
2023/03/22 07:41:53;;;;;;;14.05;3.58;;;12.10;89.70;;;;;;5048674;28;20037;-55
2023/03/22 07:44:19;;;;;;;9.45;3.22;;;12.10;89.70;;;;;;5047877;28;20025;-56
2023/03/22 07:46:44;;;;;;;15.93;3.70;;;12.10;89.80;;;;;;5064430;28;20397;-56
2023/03/22 07:49:10;;;;;;;14.45;3.58;;;12.10;89.80;;;;;;5064225;28;20020;-56
2023/03/22 07:51:35;;;;;;;18.88;3.63;;;12.10;89.90;;;;;;5063713;28;20124;-56
2023/03/22 07:54:01;;;;;;;21.95;3.67;;;12.10;89.90;;;;;;5065696;28;20123;-56
2023/03/22 07:56:26;;;;;;;21.05;3.60;;;12.10;89.90;;;;;;5047747;28;20040;-56
2023/03/22 07:58:52;;;;;;;12.95;3.78;;;12.10;89.90;;;;;;5047553;28;20035;-56
2023/03/22 08:01:18;;;;;;;13.68;3.33;;;12.10;90.00;;;;;;5065806;28;20040;-56
2023/03/22 08:03:43;;;;;;;31.92;4.78;;;12.10;89.90;;;;;;5064250;28;20025;-55
2023/03/22 08:06:10;;;;;;;13.80;3.65;;;12.10;89.80;;;;;;5064274;28;20036;-56
2023/03/22 08:08:36;;;;;;;24.63;4.55;;;12.20;89.70;;;;;;5047782;28;20033;-56
2023/03/22 08:11:02;;;;;;;15.35;3.70;;;12.20;89.80;;;;;;5064344;28;20029;-55
2023/03/22 08:13:28;;;;;;;24.05;4.07;;;12.20;89.80;;;;;;5065600;28;20139;-56
2023/03/22 08:15:54;;;;;;;15.15;3.83;;;12.20;89.70;;;;;;5064250;28;20025;-56
2023/03/22 08:18:19;;;;;;;23.08;3.67;;;12.20;89.70;;;;;;5047742;28;20036;-55
2023/03/22 08:20:45;;;;;;;22.05;4.45;;;12.20;89.70;;;;;;5064728;28;20060;-56
2023/03/22 08:23:14;;;;;;;37.33;4.78;;;12.20;89.70;;;;;;5065566;28;20043;-56
2023/03/22 08:25:41;;;;;;;20.40;5.03;;;12.30;89.80;;;;;;5048170;28;20021;-56
2023/03/22 08:28:07;;;;;;;20.13;4.03;;;12.20;89.70;;;;;;5065449;28;20033;-56
2023/03/22 08:30:33;;;;;;;34.00;5.13;;;12.20;89.60;;;;;;5063562;28;20349;-56
2023/03/22 08:32:58;;;;;;;24.45;4.63;;;12.20;89.60;;;;;;5046972;28;20536;-56
2023/03/22 08:35:24;;;;;;;25.20;4.43;;;12.30;89.60;;;;;;5065340;28;20089;-56
2023/03/22 08:37:54;;;;;;;34.10;5.07;;;12.30;89.50;;;;;;5064122;28;20033;-56
2023/03/22 08:40:19;;;;;;;30.73;5.32;;;12.30;89.40;;;;;;5064010;28;20048;-56
2023/03/22 08:42:45;;;;;;;34.80;4.88;;;12.40;89.30;;;;;;5064071;28;20069;-56
2023/03/22 08:45:11;;;;;;;28.30;4.72;;;12.40;89.10;;;;;;5063798;28;20051;-56
2023/03/22 08:47:36;;;;;;;24.13;5.03;;;12.40;89.00;;;;;;5030504;28;20056;-56
2023/03/22 08:50:02;;;;;;;29.70;5.72;;;12.40;89.00;;;;;;5063530;28;20029;-56
2023/03/22 08:52:28;;;;;;;45.35;6.57;;;12.40;89.10;;;;;;5046887;28;20090;-56
2023/03/22 08:54:54;;;;;;;54.15;7.13;;;12.40;89.60;;;;;;5064865;28;20025;-56
2023/03/22 08:57:21;;;;;;;48.08;7.57;;;12.50;89.60;;;;;;5064684;28;20059;-56
2023/03/22 08:59:47;;;;;;;37.78;7.90;;;12.40;89.70;;;;;;5046892;28;20033;-56
2023/03/22 09:02:13;;;;;;;29.77;5.78;;;12.50;89.80;;;;;;5046965;28;20029;-56
2023/03/22 09:04:38;;;;;;;87.53;11.07;;;12.50;89.40;;;;;;5064446;28;20017;-56
2023/03/22 09:07:04;;;;;;;40.40;8.43;;;12.50;89.50;;;;;;5064314;28;20401;-56
2023/03/22 09:09:29;;;;;;;52.00;8.10;;;12.50;89.40;;;;;;5063798;28;20028;-56
2023/03/22 09:11:55;;;;;;;58.83;9.18;;;12.60;89.50;;;;;;5046377;28;20032;-56
2023/03/22 09:14:20;;;;;;;37.10;7.00;;;12.60;89.30;;;;;;5064294;28;20025;-56
2023/03/22 09:16:46;;;;;;;37.30;6.93;;;12.60;89.40;;;;;;5063165;28;20029;-56
2023/03/22 09:19:12;;;;;;;41.50;7.70;;;12.60;89.20;;;;;;5064659;28;20017;-56
2023/03/22 09:21:37;;;;;;;36.05;7.30;;;12.60;89.10;;;;;;5046367;28;20157;-56
2023/03/22 09:24:03;;;;;;;44.97;6.35;;;12.60;89.00;;;;;;5064135;28;20431;-56
2023/03/22 09:26:29;;;;;;;63.25;8.73;;;12.70;88.90;;;;;;5046612;28;20036;-56
2023/03/22 09:28:55;;;;;;;50.92;8.30;;;12.70;88.90;;;;;;5055127;28;20022;-56
2023/03/22 09:31:20;;;;;;;36.55;7.18;;;12.80;89.00;;;;;;5047898;28;20031;-56
2023/03/22 09:33:46;;;;;;;43.70;7.05;;;12.80;88.90;;;;;;5047822;28;20038;-55
2023/03/22 09:36:12;;;;;;;38.67;7.38;;;12.80;88.60;;;;;;5048378;28;20034;-56
2023/03/22 09:38:39;;;;;;;38.13;7.20;;;12.80;89.20;;;;;;5046399;28;20065;-56
2023/03/22 09:41:05;;;;;;;48.78;7.63;;;12.80;88.60;;;;;;5048356;28;20032;-56
2023/03/22 09:43:39;;;;;;;34.88;6.78;;;12.90;88.50;;;;;;5046697;28;20022;-56
2023/03/22 09:46:08;;;;;;;34.30;7.10;;;12.90;88.40;;;;;;5046897;28;20034;-56
2023/03/22 09:48:38;;;;;;;33.00;5.97;;;12.90;88.30;;;;;;5046114;28;20064;-56
2023/03/22 09:51:06;;;;;;;24.48;5.53;;;13.00;88.90;;;;;;5026675;28;20093;-56
2023/03/22 09:53:32;;;;;;;35.50;6.20;;;13.00;87.60;;;;;;5043738;28;20029;-56
2023/03/22 09:55:57;;;;;;;34.70;6.68;;;13.10;87.10;;;;;;5062818;28;20033;-56
2023/03/22 09:58:36;;;;;;;27.58;6.10;;;13.10;87.70;;;;;;5048078;28;20466;-56
2023/03/22 10:01:24;;;;;;;23.02;4.90;;;13.20;87.90;;;;;;5047978;28;20029;-56
2023/03/22 10:03:59;;;;;;;25.88;5.18;;;13.20;87.40;;;;;;5036287;28;20041;-56
2023/03/22 10:06:24;;;;;;;42.95;6.28;;;13.20;86.60;;;;;;5046296;28;20105;-56
2023/03/22 10:08:58;;;;;;;34.45;6.10;;;13.30;86.50;;;;;;5031201;28;20032;-56
2023/03/22 10:11:28;;;;;;;36.05;6.35;;;13.30;86.10;;;;;;5046678;28;20033;-56
2023/03/22 10:14:01;;;;;;;28.90;6.38;;;13.40;85.80;;;;;;5047670;28;20067;-56
2023/03/22 10:16:30;;;;;;;39.35;5.95;;;13.40;86.20;;;;;;5046026;28;20041;-56
2023/03/22 10:19:07;;;;;;;30.95;5.10;;;13.40;86.30;;;;;;5046005;28;20025;-56
2023/03/22 10:21:32;;;;;;;35.80;5.35;;;13.50;86.20;;;;;;5046275;28;20059;-56
2023/03/22 10:24:04;;;;;;;28.92;5.75;;;13.50;85.80;;;;;;5046184;28;20025;-56
2023/03/22 10:26:37;;;;;;;43.15;5.63;;;13.50;85.40;;;;;;5045569;28;20025;-55
2023/03/22 10:29:36;;;;;;;46.60;6.45;;;13.60;85.40;;;;;;5045972;28;20029;-56
2023/03/22 10:32:37;;;;;;;35.47;5.68;;;13.60;84.90;;;;;;5045127;28;20041;-56
2023/03/22 10:35:12;;;;;;;43.38;5.63;;;13.70;84.30;;;;;;5026026;28;20088;-56
2023/03/22 10:37:38;;;;;;;33.55;5.20;;;13.70;84.00;;;;;;5027477;28;20045;-56
2023/03/22 10:40:07;;;;;;;40.80;5.45;;;13.70;83.60;;;;;;5009690;28;20467;-56
2023/03/22 10:42:35;;;;;;;32.10;4.68;;;13.80;83.50;;;;;;5010418;28;20193;-56
2023/03/22 10:45:02;;;;;;;39.08;4.88;;;13.80;83.20;;;;;;5024930;28;20052;-56
2023/03/22 10:47:39;;;;;;;38.38;4.63;;;13.80;82.80;;;;;;5038460;28;20346;-56
2023/03/22 10:50:08;;;;;;;38.08;4.60;;;13.80;83.10;;;;;;5028705;28;20083;-56
2023/03/22 10:52:38;;;;;;;44.97;5.07;;;13.90;83.20;;;;;;5029080;28;20037;-56
2023/03/22 10:55:09;;;;;;;47.47;5.25;;;13.90;82.80;;;;;;5045414;28;20461;-56
2023/03/22 10:57:34;;;;;;;39.33;4.65;;;13.90;82.20;;;;;;5046264;28;20034;-56
2023/03/22 11:00:00;;;;;;;33.13;5.18;;;14.00;82.00;;;;;;5043320;28;20093;-56
2023/03/22 11:02:30;;;;;;;30.58;5.03;;;14.00;81.70;;;;;;5043363;28;20093;-55
2023/03/22 11:05:00;;;;;;;32.10;4.57;;;14.00;81.30;;;;;;5026885;28;20029;-54
2023/03/22 11:07:30;;;;;;;29.27;4.18;;;14.10;81.00;;;;;;5043333;28;20034;-55
2023/03/22 11:10:02;;;;;;;17.08;3.72;;;14.10;80.90;;;;;;5044662;28;20052;-54
2023/03/22 11:12:28;;;;;;;20.98;3.80;;;14.20;80.60;;;;;;5043445;28;20121;-55
2023/03/22 11:14:54;;;;;;;26.02;4.22;;;14.20;81.10;;;;;;5044934;28;20466;-55
2023/03/22 11:17:22;;;;;;;33.03;4.43;;;14.20;80.10;;;;;;5045083;28;20030;-55
2023/03/22 11:19:54;;;;;;;25.00;3.97;;;14.30;79.80;;;;;;5045156;28;20026;-54
2023/03/22 11:22:32;;;;;;;29.52;4.82;;;14.40;79.60;;;;;;5045356;28;20033;-55
2023/03/22 11:24:57;;;;;;;27.83;4.93;;;14.40;79.30;;;;;;5044483;28;20104;-54
2023/03/22 11:27:28;;;;;;;25.17;5.05;;;14.50;79.40;;;;;;5044711;28;20029;-55
2023/03/22 11:30:24;;;;;;;66.70;7.50;;;14.50;79.20;;;;;;5044796;28;20033;-54
2023/03/22 11:33:04;;;;;;;34.38;4.45;;;14.60;79.20;;;;;;5044029;28;20041;-54
2023/03/22 11:35:30;;;;;;;35.50;5.10;;;14.60;78.70;;;;;;5044642;28;20124;-54
2023/03/22 11:37:56;;;;;;;26.15;4.57;;;14.70;78.50;;;;;;5044471;28;20330;-55
2023/03/22 11:40:26;;;;;;;37.55;4.57;;;14.70;78.40;;;;;;5044323;28;20033;-55
2023/03/22 11:42:57;;;;;;;40.83;5.00;;;14.80;77.80;;;;;;5042677;28;20151;-54
2023/03/22 11:45:31;;;;;;;40.75;4.65;;;14.80;76.80;;;;;;5039397;28;20113;-55
2023/03/22 11:48:27;;;;;;;41.35;5.28;;;14.80;76.40;;;;;;5017711;28;20037;-54
2023/03/22 11:50:54;;;;;;;21.80;4.78;;;14.90;76.00;;;;;;5028318;28;20058;-54
2023/03/22 11:53:21;;;;;;;30.77;3.53;;;14.90;75.00;;;;;;5042475;28;20037;-55
2023/03/22 11:55:48;;;;;;;27.27;5.18;;;15.00;73.90;;;;;;5040390;28;20033;-54
2023/03/22 11:58:46;;;;;;;52.83;6.78;;;15.00;74.30;;;;;;5042648;28;20049;-55
2023/03/22 12:01:37;;;;;;;31.67;5.18;;;15.10;74.40;;;;;;5034814;28;20106;-54
2023/03/22 12:04:06;;;;;;;50.28;6.00;;;15.20;73.60;;;;;;5032631;28;20213;-55
2023/03/22 12:06:33;;;;;;;41.80;6.00;;;15.20;73.30;;;;;;5021829;28;20338;-54
2023/03/22 12:09:19;;;;;;;52.47;5.55;;;15.30;72.90;;;;;;5003415;28;20052;-54
2023/03/22 12:11:45;;;;;;;;;;;15.40;72.00;;;;;;5022602;28;20056;-54
2023/03/22 12:14:48;;;;;;;45.63;5.18;;;15.40;71.40;;;;;;5038333;28;20229;-54
2023/03/22 12:17:40;;;;;;;37.50;5.28;;;15.50;71.60;;;;;;5041581;28;20116;-54
2023/03/22 12:20:16;;;;;;;41.40;5.97;;;15.50;71.70;;;;;;5043291;28;20033;-54
2023/03/22 12:22:46;;;;;;;39.10;5.10;;;15.60;72.50;;;;;;5041835;28;20513;-55
2023/03/22 12:25:14;;;;;;;66.10;6.03;;;15.60;72.40;;;;;;5040186;28;20025;-55
2023/03/22 12:27:42;;;;;;;44.50;6.32;;;15.70;71.80;;;;;;5043567;28;20045;-54
2023/03/22 12:30:20;;;;;;;44.45;5.68;;;15.70;71.80;;;;;;5031589;28;20037;-55
2023/03/22 12:32:49;;;;;;;60.80;6.00;;;15.80;72.20;;;;;;5040337;28;20169;-55
2023/03/22 12:35:19;;;;;;;49.20;6.85;;;15.80;72.10;;;;;;5040882;28;20034;-55
2023/03/22 12:37:50;;;;;;;54.80;6.63;;;15.90;71.40;;;;;;5049697;28;20052;-54
2023/03/22 12:40:21;;;;;;;57.63;6.95;;;15.90;71.30;;;;;;5017507;28;20052;-54
2023/03/22 12:42:53;;;;;;;56.85;7.32;;;15.90;71.10;;;;;;5026818;28;20037;-54
2023/03/22 12:45:25;;;;;;;57.22;7.70;;;16.00;71.00;;;;;;5041733;28;20080;-55
2023/03/22 12:47:59;;;;;;;75.10;8.48;;;16.10;71.20;;;;;;5044321;28;20034;-55
2023/03/22 12:50:28;;;;;;;51.95;7.55;;;16.10;71.40;;;;;;5039439;28;20037;-55
2023/03/22 12:52:55;;;;;;;65.57;6.75;;;16.10;71.50;;;;;;5045798;28;20029;-53